createdAt,value
2019-03-24T00:01:48.060Z,37.83
2019-03-24T00:04:17.984Z,46.97
2019-03-24T00:06:47.886Z,39.87
2019-03-24T00:09:17.620Z,34.37
2019-03-24T00:11:47.621Z,32.07
2019-03-24T00:14:17.470Z,30.37
2019-03-24T00:16:47.312Z,30.63
2019-03-24T00:19:17.280Z,47.30
2019-03-24T00:21:47.160Z,34.27
2019-03-24T00:24:16.993Z,32.07
2019-03-24T00:26:46.851Z,39.27
2019-03-24T00:29:16.706Z,35.67
2019-03-24T00:31:46.553Z,35.30
2019-03-24T00:34:16.406Z,32.10
2019-03-24T00:36:46.298Z,30.73
2019-03-24T00:39:16.166Z,33.53
2019-03-24T00:41:46.021Z,32.77
2019-03-24T00:44:16.040Z,32.23
2019-03-24T00:46:45.878Z,44.13
2019-03-24T00:49:15.753Z,27.13
2019-03-24T00:51:45.607Z,33.60
2019-03-24T00:54:15.452Z,36.20
2019-03-24T00:56:45.379Z,31.80
2019-03-24T00:59:15.249Z,33.17
2019-03-24T01:01:45.004Z,33.90
2019-03-24T01:04:14.853Z,27.93
2019-03-24T01:06:44.735Z,49.07
2019-03-24T01:09:14.639Z,42.97
2019-03-24T01:11:44.479Z,41.20
2019-03-24T01:14:14.336Z,40.77
2019-03-24T01:16:44.170Z,38.83
2019-03-24T01:19:14.045Z,33.27
2019-03-24T01:21:43.835Z,37.77
2019-03-24T01:24:13.678Z,47.30
2019-03-24T01:26:43.503Z,45.57
2019-03-24T01:29:13.316Z,44.90
2019-03-24T01:31:43.153Z,32.97
2019-03-24T01:34:13.075Z,34.50
2019-03-24T01:36:42.913Z,35.43
2019-03-24T01:39:12.767Z,30.53
2019-03-24T01:41:42.529Z,30.93
2019-03-24T01:44:12.345Z,34.53
2019-03-24T01:46:42.217Z,47.37
2019-03-24T01:49:12.066Z,48.87
2019-03-24T01:51:41.862Z,34.73
2019-03-24T01:54:11.679Z,31.30
2019-03-24T01:56:41.537Z,31.30
2019-03-24T01:59:11.498Z,32.57
2019-03-24T02:01:41.349Z,25.37
2019-03-24T02:04:11.118Z,26.93
2019-03-24T02:06:40.998Z,26.30
2019-03-24T02:09:10.937Z,27.17
2019-03-24T02:11:40.822Z,27.80
2019-03-24T02:14:10.653Z,26.97
2019-03-24T02:16:40.942Z,29.43
2019-03-24T02:19:10.785Z,30.23
2019-03-24T02:21:40.579Z,41.07
2019-03-24T02:24:10.373Z,38.97
2019-03-24T02:26:40.484Z,40.93
2019-03-24T02:29:10.300Z,40.47
2019-03-24T02:31:40.132Z,43.70
2019-03-24T02:34:10.050Z,34.03
2019-03-24T02:36:39.960Z,26.90
2019-03-24T02:39:09.761Z,27.93
2019-03-24T02:41:39.600Z,47.43
2019-03-24T02:44:09.433Z,29.80
2019-03-24T02:46:39.428Z,41.03
2019-03-24T02:49:09.249Z,30.90
2019-03-24T02:51:39.122Z,26.30
2019-03-24T02:54:08.993Z,39.27
2019-03-24T02:56:38.735Z,28.43
2019-03-24T02:59:08.601Z,39.73
2019-03-24T03:01:38.475Z,42.90
2019-03-24T03:04:08.471Z,42.83
2019-03-24T03:06:38.193Z,37.97
2019-03-24T03:09:08.171Z,35.10
2019-03-24T03:11:38.195Z,36.73
2019-03-24T03:14:07.985Z,31.17
2019-03-24T03:16:39.272Z,43.30
2019-03-24T03:19:09.351Z,44.00
2019-03-24T03:21:39.241Z,30.77
2019-03-24T03:24:09.099Z,33.60
2019-03-24T03:26:38.822Z,44.17
2019-03-24T03:29:08.668Z,32.63
2019-03-24T03:31:38.465Z,47.53
2019-03-24T03:34:08.455Z,36.10
2019-03-24T03:36:38.269Z,39.20
2019-03-24T03:39:08.475Z,46.00
2019-03-24T03:41:38.480Z,43.57
2019-03-24T03:44:08.302Z,31.43
2019-03-24T03:46:51.560Z,41.50
2019-03-24T03:49:09.713Z,42.23
2019-03-24T03:51:39.584Z,39.07
2019-03-24T03:54:09.484Z,32.37
2019-03-24T03:56:39.319Z,33.13
2019-03-24T03:59:09.182Z,43.33
2019-03-24T04:01:39.028Z,44.80
2019-03-24T04:04:08.961Z,33.70
2019-03-24T04:06:38.679Z,32.63
2019-03-24T04:09:08.954Z,27.40
2019-03-24T04:11:38.833Z,33.57
2019-03-24T04:14:08.630Z,43.57
2019-03-24T04:16:38.411Z,45.03
2019-03-24T04:19:08.293Z,38.17
2019-03-24T04:21:38.172Z,37.63
2019-03-24T04:24:08.037Z,38.50
2019-03-24T04:26:37.860Z,41.17
2019-03-24T04:29:07.653Z,31.00
2019-03-24T04:31:37.573Z,32.57
2019-03-24T04:34:07.305Z,41.23
2019-03-24T04:36:37.302Z,35.93
2019-03-24T04:39:07.558Z,40.33
2019-03-24T04:41:37.423Z,31.40
2019-03-24T04:44:07.201Z,35.17
2019-03-24T04:46:37.026Z,40.93
2019-03-24T04:49:06.928Z,38.33
2019-03-24T04:51:36.788Z,35.93
2019-03-24T04:54:06.577Z,33.67
2019-03-24T04:56:36.494Z,32.77
2019-03-24T04:59:06.330Z,40.50
2019-03-24T05:01:36.162Z,43.30
2019-03-24T05:04:05.990Z,38.60
2019-03-24T05:06:36.096Z,37.87
2019-03-24T05:09:06.632Z,31.63
2019-03-24T05:11:36.507Z,26.27
2019-03-24T05:14:06.377Z,31.57
2019-03-24T05:16:36.295Z,37.67
2019-03-24T05:19:06.101Z,38.83
2019-03-24T05:21:35.933Z,40.87
2019-03-24T05:24:05.800Z,40.90
2019-03-24T05:26:35.650Z,37.47
2019-03-24T05:29:05.569Z,39.80
2019-03-24T05:31:35.445Z,29.93
2019-03-24T05:34:05.211Z,40.33
2019-03-24T05:36:35.048Z,44.27
2019-03-24T05:39:06.176Z,37.90
2019-03-24T05:41:36.016Z,37.70
2019-03-24T05:44:05.870Z,39.60
2019-03-24T05:46:35.759Z,43.10
2019-03-24T05:49:05.569Z,44.40
2019-03-24T05:51:35.428Z,35.73
2019-03-24T05:54:05.312Z,40.43
2019-03-24T05:56:35.067Z,40.50
2019-03-24T05:59:04.852Z,40.53
2019-03-24T06:01:34.673Z,41.83
2019-03-24T06:04:04.556Z,32.90
2019-03-24T06:06:34.337Z,28.53
2019-03-24T06:09:05.528Z,28.77
2019-03-24T06:11:35.391Z,26.60
2019-03-24T06:14:05.252Z,41.00
2019-03-24T06:16:35.122Z,38.53
2019-03-24T06:19:04.893Z,31.23
2019-03-24T06:21:35.510Z,26.07
2019-03-24T06:24:05.665Z,22.27
2019-03-24T06:26:35.460Z,38.93
2019-03-24T06:29:05.622Z,38.90
2019-03-24T06:31:35.593Z,40.37
2019-03-24T06:34:05.575Z,27.30
2019-03-24T06:36:35.346Z,39.33
2019-03-24T06:39:06.669Z,32.10
2019-03-24T06:41:36.658Z,26.20
2019-03-24T06:44:06.486Z,25.53
2019-03-24T06:46:36.567Z,34.50
2019-03-24T06:49:06.297Z,24.83
2019-03-24T06:51:36.021Z,20.77
2019-03-24T06:54:05.766Z,25.77
2019-03-24T06:56:35.690Z,25.30
2019-03-24T06:59:05.596Z,20.70
2019-03-24T07:01:35.527Z,23.90
2019-03-24T07:04:05.248Z,26.03
2019-03-24T07:06:35.127Z,33.90
2019-03-24T07:09:06.074Z,31.57
2019-03-24T07:11:35.812Z,25.83
2019-03-24T07:14:05.726Z,34.53
2019-03-24T07:16:35.551Z,31.87
2019-03-24T07:19:05.853Z,35.77
2019-03-24T07:21:35.736Z,29.47
2019-03-24T07:24:05.601Z,26.03
2019-03-24T07:26:35.386Z,27.23
2019-03-24T07:29:05.184Z,34.50
2019-03-24T07:31:35.121Z,36.80
2019-03-24T07:34:05.007Z,27.60
2019-03-24T07:36:34.860Z,31.03
2019-03-24T07:39:05.777Z,25.70
2019-03-24T07:41:35.605Z,30.30
2019-03-24T07:44:05.631Z,40.37
2019-03-24T07:46:35.636Z,36.43
2019-03-24T07:49:05.536Z,27.77
2019-03-24T07:51:35.471Z,37.87
2019-03-24T07:54:05.347Z,39.90
2019-03-24T07:56:35.202Z,40.83
2019-03-24T07:59:05.548Z,43.80
2019-03-24T08:01:35.426Z,34.33
2019-03-24T08:04:06.068Z,43.67
2019-03-24T08:06:35.963Z,40.07
2019-03-24T08:09:06.822Z,45.77
2019-03-24T08:11:36.627Z,44.43
2019-03-24T08:14:06.558Z,47.10
2019-03-24T08:16:36.416Z,47.57
2019-03-24T08:19:06.261Z,45.93
2019-03-24T08:21:36.230Z,48.77
2019-03-24T08:24:06.126Z,41.43
2019-03-24T08:26:35.919Z,49.53
2019-03-24T08:29:05.835Z,41.60
2019-03-24T08:31:35.667Z,41.53
2019-03-24T08:34:05.575Z,44.03
2019-03-24T08:36:35.400Z,49.30
2019-03-24T08:39:06.214Z,43.40
2019-03-24T08:41:36.018Z,47.70
2019-03-24T08:44:06.016Z,50.27
2019-03-24T08:46:35.945Z,46.23
2019-03-24T08:49:05.813Z,48.40
2019-03-24T08:51:35.605Z,49.03
2019-03-24T08:54:06.345Z,48.33
2019-03-24T08:56:36.220Z,49.63
2019-03-24T08:59:06.166Z,41.77
2019-03-24T09:01:36.035Z,45.53
2019-03-24T09:04:05.991Z,51.97
2019-03-24T09:06:35.853Z,50.03
2019-03-24T09:09:07.449Z,45.87
2019-03-24T09:11:38.307Z,47.17
2019-03-24T09:14:08.204Z,41.83
2019-03-24T09:16:38.093Z,46.63
2019-03-24T09:19:08.067Z,48.47
2019-03-24T09:21:37.920Z,47.97
2019-03-24T09:24:07.745Z,49.70
2019-03-24T09:26:37.773Z,46.53
2019-03-24T09:29:07.677Z,51.17
2019-03-24T09:31:37.777Z,49.60
2019-03-24T09:34:07.643Z,52.23
2019-03-24T09:36:37.645Z,53.83
2019-03-24T09:39:08.587Z,46.83
2019-03-24T09:41:38.977Z,52.50
2019-03-24T09:44:08.775Z,54.30
2019-03-24T09:46:38.681Z,54.47
2019-03-24T09:49:08.516Z,52.80
2019-03-24T09:51:38.687Z,58.37
2019-03-24T09:54:08.871Z,54.73
2019-03-24T09:56:38.891Z,46.47
2019-03-24T09:59:08.721Z,55.93
2019-03-24T10:01:38.594Z,54.07
2019-03-24T10:04:08.566Z,52.27
2019-03-24T10:06:38.424Z,53.50
2019-03-24T10:09:08.235Z,53.40
2019-03-24T10:11:38.102Z,51.17
2019-03-24T10:14:08.001Z,51.57
2019-03-24T10:16:37.904Z,56.43
2019-03-24T10:19:13.895Z,53.60
2019-03-24T10:21:39.390Z,55.07
2019-03-24T10:24:09.219Z,54.33
2019-03-24T10:26:39.585Z,57.40
2019-03-24T10:29:09.908Z,56.20
2019-03-24T10:31:42.506Z,55.70
2019-03-24T10:34:11.775Z,47.20
2019-03-24T10:36:42.154Z,52.93
2019-03-24T10:39:15.064Z,53.70
2019-03-24T10:41:45.299Z,56.00
2019-03-24T10:44:15.143Z,54.73
2019-03-24T10:46:45.304Z,56.30
2019-03-24T10:49:24.499Z,54.90
2019-03-24T10:51:47.262Z,54.33
2019-03-24T10:54:18.210Z,53.83
2019-03-24T10:56:48.693Z,53.67
2019-03-24T10:59:18.607Z,51.87
2019-03-24T11:01:48.433Z,52.17
2019-03-24T11:04:18.402Z,51.87
2019-03-24T11:06:48.233Z,50.77
2019-03-24T11:09:18.106Z,52.10
2019-03-24T11:11:47.990Z,52.77
2019-03-24T11:14:17.844Z,52.03
2019-03-24T11:16:47.684Z,52.80
2019-03-24T11:19:17.654Z,51.63
2019-03-24T11:21:47.505Z,52.30
2019-03-24T11:24:17.997Z,56.63
2019-03-24T11:26:47.828Z,50.50
2019-03-24T11:29:17.736Z,50.87
2019-03-24T11:31:47.566Z,46.00
2019-03-24T11:34:17.365Z,49.47
2019-03-24T11:36:47.346Z,50.53
2019-03-24T11:39:17.524Z,47.43
2019-03-24T11:41:47.414Z,48.77
2019-03-24T11:44:17.338Z,49.30
2019-03-24T11:46:47.262Z,49.63
2019-03-24T11:49:20.148Z,49.10
2019-03-24T11:51:50.385Z,48.00
2019-03-24T11:54:20.393Z,47.90
2019-03-24T11:56:50.240Z,46.70
2019-03-24T11:59:20.148Z,45.50
2019-03-24T12:01:50.086Z,45.13
2019-03-24T12:04:20.117Z,44.20
2019-03-24T12:06:50.058Z,44.07
2019-03-24T12:09:19.914Z,44.00
2019-03-24T12:11:49.791Z,47.20
2019-03-24T12:14:19.717Z,47.00
2019-03-24T12:16:49.850Z,47.77
2019-03-24T12:19:25.274Z,46.63
2019-03-24T12:21:55.214Z,46.70
2019-03-24T12:24:25.093Z,40.50
2019-03-24T12:26:55.039Z,46.30
2019-03-24T12:29:24.888Z,45.53
2019-03-24T12:31:54.740Z,48.50
2019-03-24T12:34:24.616Z,43.80
2019-03-24T12:36:54.498Z,48.07
2019-03-24T12:39:24.616Z,47.30
2019-03-24T12:41:54.470Z,48.17
2019-03-24T12:44:24.324Z,50.23
2019-03-24T12:46:54.186Z,47.13
2019-03-24T12:49:24.007Z,49.17
2019-03-24T12:51:53.959Z,48.40
2019-03-24T12:54:25.547Z,50.10
2019-03-24T12:56:55.522Z,46.73
2019-03-24T12:59:25.405Z,47.10
2019-03-24T13:01:55.318Z,47.20
2019-03-24T13:04:25.222Z,50.53
2019-03-24T13:06:55.106Z,48.00
2019-03-24T13:09:25.151Z,41.47
2019-03-24T13:11:55.297Z,47.03
2019-03-24T13:14:25.197Z,45.60
2019-03-24T13:16:55.150Z,47.43
2019-03-24T13:19:25.108Z,39.90
2019-03-24T13:21:55.321Z,38.87
2019-03-24T13:24:25.316Z,42.90
2019-03-24T13:26:55.250Z,41.07
2019-03-24T13:29:25.246Z,42.50
2019-03-24T13:31:55.136Z,42.83
2019-03-24T13:34:25.034Z,41.07
2019-03-24T13:36:54.938Z,43.10
2019-03-24T13:39:24.954Z,43.33
2019-03-24T13:41:54.782Z,38.00
2019-03-24T13:44:24.872Z,44.23
2019-03-24T13:46:54.798Z,39.57
2019-03-24T13:49:24.874Z,43.43
2019-03-24T13:51:56.305Z,42.97
2019-03-24T13:54:26.259Z,41.17
2019-03-24T13:56:56.181Z,42.30
2019-03-24T13:59:26.060Z,42.73
2019-03-24T14:01:56.116Z,36.37
2019-03-24T14:04:26.024Z,43.23
2019-03-24T14:06:56.730Z,39.50
2019-03-24T14:09:26.836Z,42.23
2019-03-24T14:11:56.752Z,41.03
2019-03-24T14:14:26.520Z,42.97
2019-03-24T14:16:56.395Z,32.07
2019-03-24T14:19:26.327Z,41.40
2019-03-24T14:21:56.248Z,40.07
2019-03-24T14:24:26.059Z,42.53
2019-03-24T14:26:56.099Z,41.03
2019-03-24T14:29:27.211Z,40.53
2019-03-24T14:31:57.538Z,42.43
2019-03-24T14:34:27.457Z,42.00
2019-03-24T14:36:57.356Z,40.93
2019-03-24T14:39:27.332Z,39.67
2019-03-24T14:41:57.230Z,41.40
2019-03-24T14:44:27.217Z,41.67
2019-03-24T14:46:57.113Z,33.10
2019-03-24T14:49:27.132Z,40.83
2019-03-24T14:51:56.991Z,40.63
2019-03-24T14:54:26.953Z,42.07
2019-03-24T14:56:56.838Z,42.37
2019-03-24T14:59:26.924Z,44.20
2019-03-24T15:01:56.857Z,41.00
2019-03-24T15:04:26.694Z,40.90
2019-03-24T15:06:56.556Z,42.60
2019-03-24T15:09:26.464Z,42.20
2019-03-24T15:11:56.380Z,43.07
2019-03-24T15:14:26.462Z,43.27
2019-03-24T15:16:56.631Z,42.10
2019-03-24T15:19:26.476Z,43.87
2019-03-24T15:21:56.318Z,42.40
2019-03-24T15:24:26.275Z,39.77
2019-03-24T15:26:56.189Z,37.30
2019-03-24T15:29:26.211Z,35.57
2019-03-24T15:31:56.114Z,35.53
2019-03-24T15:34:26.104Z,43.43
2019-03-24T15:36:55.967Z,42.40
2019-03-24T15:39:26.086Z,36.63
2019-03-24T15:41:55.956Z,42.50
2019-03-24T15:44:25.883Z,41.60
2019-03-24T15:46:56.025Z,36.30
2019-03-24T15:49:25.936Z,43.70
2019-03-24T15:51:55.867Z,42.07
2019-03-24T15:54:25.842Z,42.83
2019-03-24T15:56:55.924Z,34.43
2019-03-24T15:59:26.912Z,40.93
2019-03-24T16:01:57.023Z,38.73
2019-03-24T16:04:26.965Z,39.83
2019-03-24T16:06:56.808Z,40.80
2019-03-24T16:09:26.889Z,41.43
2019-03-24T16:11:57.027Z,40.67
2019-03-24T16:14:27.003Z,41.80
2019-03-24T16:16:57.135Z,40.27
2019-03-24T16:19:27.053Z,39.87
2019-03-24T16:21:57.019Z,43.07
2019-03-24T16:24:26.884Z,40.40
2019-03-24T16:26:56.818Z,39.70
2019-03-24T16:29:26.766Z,40.30
2019-03-24T16:31:56.684Z,41.20
2019-03-24T16:34:27.116Z,37.60
2019-03-24T16:36:56.983Z,36.67
2019-03-24T16:39:27.014Z,38.23
2019-03-24T16:41:56.968Z,35.83
2019-03-24T16:44:26.840Z,32.40
2019-03-24T16:46:56.679Z,38.77
2019-03-24T16:49:26.821Z,36.63
2019-03-24T16:51:56.684Z,30.47
2019-03-24T16:54:26.563Z,36.77
2019-03-24T16:56:56.717Z,30.00
2019-03-24T16:59:26.576Z,36.97
2019-03-24T17:01:56.354Z,38.20
2019-03-24T17:04:26.295Z,42.50
2019-03-24T17:06:56.584Z,40.10
2019-03-24T17:09:26.823Z,37.47
2019-03-24T17:11:57.112Z,33.07
2019-03-24T17:14:27.559Z,36.30
2019-03-24T17:16:57.746Z,26.00
2019-03-24T17:19:27.714Z,38.63
2019-03-24T17:21:57.614Z,36.87
2019-03-24T17:24:28.546Z,34.50
2019-03-24T17:26:58.474Z,36.17
2019-03-24T17:29:28.395Z,28.63
2019-03-24T17:31:58.393Z,35.43
2019-03-24T17:34:28.315Z,29.67
2019-03-24T17:36:58.193Z,31.13
2019-03-24T17:39:28.195Z,30.73
2019-03-24T17:41:58.274Z,37.63
2019-03-24T17:44:28.144Z,28.50
2019-03-24T17:46:58.259Z,37.30
2019-03-24T17:49:28.079Z,30.23
2019-03-24T17:52:00.987Z,28.60
2019-03-24T17:54:29.962Z,38.37
2019-03-24T17:57:00.089Z,31.77
2019-03-24T17:59:30.233Z,36.23
2019-03-24T18:02:00.119Z,26.57
2019-03-24T18:04:30.134Z,35.97
2019-03-24T18:07:00.029Z,26.47
2019-03-24T18:09:29.980Z,21.87
2019-03-24T18:11:59.897Z,28.83
2019-03-24T18:14:29.749Z,26.13
2019-03-24T18:16:59.602Z,26.63
2019-03-24T18:19:29.593Z,30.50
2019-03-24T18:21:59.808Z,23.27
2019-03-24T18:24:29.699Z,21.20
2019-03-24T18:26:59.883Z,20.27
2019-03-24T18:29:29.868Z,25.93
2019-03-24T18:31:59.870Z,27.10
2019-03-24T18:34:29.958Z,28.67
2019-03-24T18:36:59.990Z,35.20
2019-03-24T18:39:29.861Z,37.50
2019-03-24T18:41:59.758Z,26.73
2019-03-24T18:44:29.669Z,24.40
2019-03-24T18:47:00.174Z,35.07
2019-03-24T18:49:30.107Z,33.20
2019-03-24T18:51:59.979Z,27.17
2019-03-24T18:54:30.042Z,33.77
2019-03-24T18:56:59.905Z,29.20
2019-03-24T18:59:29.788Z,24.13
2019-03-24T19:01:59.986Z,27.23
2019-03-24T19:04:29.891Z,26.60
2019-03-24T19:07:00.020Z,26.20
2019-03-24T19:09:30.003Z,27.90
2019-03-24T19:11:59.827Z,29.00
2019-03-24T19:14:30.047Z,29.97
2019-03-24T19:17:00.066Z,23.00
2019-03-24T19:19:30.214Z,30.83
2019-03-24T19:22:00.328Z,32.13
2019-03-24T19:24:30.149Z,31.60
2019-03-24T19:27:00.075Z,23.03
2019-03-24T19:29:29.878Z,20.67
2019-03-24T19:31:59.879Z,22.70
2019-03-24T19:34:29.913Z,33.00
2019-03-24T19:37:00.216Z,22.30
2019-03-24T19:39:31.465Z,20.43
2019-03-24T19:42:01.401Z,24.87
2019-03-24T19:44:31.739Z,31.80
2019-03-24T19:47:01.918Z,20.30
2019-03-24T19:49:31.793Z,25.47
2019-03-24T19:52:01.716Z,31.43
2019-03-24T19:54:31.910Z,30.43
2019-03-24T19:57:02.951Z,32.10
2019-03-24T19:59:32.998Z,29.70
2019-03-24T20:02:02.904Z,30.93
2019-03-24T20:04:32.860Z,24.80
2019-03-24T20:07:02.835Z,21.47
2019-03-24T20:09:32.932Z,24.53
2019-03-24T20:12:03.040Z,21.57
2019-03-24T20:14:32.967Z,28.60
2019-03-24T20:17:02.918Z,22.97
2019-03-24T20:19:32.808Z,22.10
2019-03-24T20:22:02.706Z,18.33
2019-03-24T20:24:32.590Z,21.87
2019-03-24T20:27:02.607Z,20.60
2019-03-24T20:29:32.630Z,29.17
2019-03-24T20:32:02.502Z,23.33
2019-03-24T20:34:32.376Z,23.07
2019-03-24T20:37:02.322Z,26.83
2019-03-24T20:39:32.249Z,29.93
2019-03-24T20:42:02.125Z,31.97
2019-03-24T20:44:32.014Z,23.70
2019-03-24T20:47:02.086Z,23.93
2019-03-24T20:49:32.030Z,28.37
2019-03-24T20:52:02.142Z,20.40
2019-03-24T20:54:32.092Z,17.63
2019-03-24T20:57:01.854Z,29.37
2019-03-24T20:59:31.924Z,27.77
2019-03-24T21:02:01.693Z,28.53
2019-03-24T21:04:31.826Z,29.17
2019-03-24T21:07:01.670Z,28.50
2019-03-24T21:09:31.495Z,27.33
2019-03-24T21:12:01.422Z,29.23
2019-03-24T21:14:31.362Z,30.23
2019-03-24T21:17:01.338Z,23.57
2019-03-24T21:19:31.273Z,27.33
2019-03-24T21:22:01.210Z,28.27
2019-03-24T21:24:31.383Z,26.57
2019-03-24T21:27:01.310Z,20.70
2019-03-24T21:29:31.323Z,23.67
2019-03-24T21:32:01.224Z,24.20
2019-03-24T21:34:31.245Z,24.07
2019-03-24T21:37:01.115Z,22.87
2019-03-24T21:39:31.156Z,22.83
2019-03-24T21:42:01.312Z,23.23
2019-03-24T21:44:31.162Z,23.50
2019-03-24T21:47:01.183Z,23.50
2019-03-24T21:49:31.082Z,21.93
2019-03-24T21:52:01.096Z,23.90
2019-03-24T21:54:30.989Z,21.83
2019-03-24T21:57:01.240Z,24.67
2019-03-24T21:59:31.335Z,22.53
2019-03-24T22:02:01.318Z,17.33
2019-03-24T22:04:31.195Z,23.17
2019-03-24T22:07:01.345Z,16.07
2019-03-24T22:09:31.251Z,18.53
2019-03-24T22:12:01.120Z,21.03
2019-03-24T22:14:31.053Z,20.47
2019-03-24T22:17:01.282Z,22.30
2019-03-24T22:19:31.234Z,20.00
2019-03-24T22:22:01.077Z,20.60
2019-03-24T22:24:30.969Z,20.23
2019-03-24T22:27:01.052Z,16.37
2019-03-24T22:29:31.101Z,18.27
2019-03-24T22:32:00.931Z,16.53
2019-03-24T22:34:30.836Z,20.10
2019-03-24T22:37:00.676Z,17.00
2019-03-24T22:39:30.527Z,16.87
2019-03-24T22:42:00.483Z,18.40
2019-03-24T22:44:30.362Z,19.13
2019-03-24T22:47:00.474Z,19.60
2019-03-24T22:49:30.363Z,16.97
2019-03-24T22:52:07.179Z,19.77
2019-03-24T22:54:31.764Z,19.30
2019-03-24T22:57:01.507Z,20.33
2019-03-24T22:59:31.470Z,20.77
2019-03-24T23:02:01.634Z,20.23
2019-03-24T23:04:31.508Z,23.77
2019-03-24T23:07:01.384Z,20.87
2019-03-24T23:09:31.418Z,19.93
2019-03-24T23:12:01.567Z,25.03
2019-03-24T23:14:31.337Z,22.13
2019-03-24T23:17:01.162Z,18.77
2019-03-24T23:19:31.181Z,24.00
2019-03-24T23:22:01.044Z,24.93
2019-03-24T23:24:31.001Z,25.23
2019-03-24T23:27:00.892Z,23.33
2019-03-24T23:29:31.021Z,24.87
2019-03-24T23:32:00.850Z,25.80
2019-03-24T23:34:30.873Z,22.87
2019-03-24T23:37:00.820Z,22.83
2019-03-24T23:39:30.925Z,23.43
2019-03-24T23:42:01.035Z,24.80
2019-03-24T23:44:30.948Z,20.17
2019-03-24T23:47:00.803Z,23.93
2019-03-24T23:49:30.785Z,19.53
2019-03-24T23:52:00.934Z,20.40
2019-03-24T23:54:31.077Z,19.83
2019-03-24T23:57:01.289Z,19.50
2019-03-24T23:59:31.466Z,16.40
